sensor_id;sensor_type;location;lat;lon;timestamp;pressure;altitude;pressure_sealevel;temperature;humidity
43701;BME280;58809;47.984;7.964;2022-12-07T00:01:55;97280.88;;;2.86;100.00
43701;BME280;58809;47.984;7.964;2022-12-07T00:04:57;97272.19;;;2.85;100.00
43701;BME280;58809;47.984;7.964;2022-12-07T00:07:58;97274.94;;;2.84;100.00
43701;BME280;58809;47.984;7.964;2022-12-07T00:11:08;97274.66;;;2.77;100.00
43701;BME280;58809;47.984;7.964;2022-12-07T00:14:14;97276.22;;;2.89;100.00
43701;BME280;58809;47.984;7.964;2022-12-07T00:17:16;97271.59;;;3.03;100.00
43701;BME280;58809;47.984;7.964;2022-12-07T00:20:17;97273.09;;;3.05;100.00
43701;BME280;58809;47.984;7.964;2022-12-07T00:23:19;97268.06;;;3.14;100.00
43701;BME280;58809;47.984;7.964;2022-12-07T00:26:26;97273.97;;;3.16;100.00
43701;BME280;58809;47.984;7.964;2022-12-07T00:29:28;97264.75;;;3.12;100.00
43701;BME280;58809;47.984;7.964;2022-12-07T00:32:29;97256.75;;;3.13;100.00
43701;BME280;58809;47.984;7.964;2022-12-07T00:35:31;97257.06;;;3.20;100.00
43701;BME280;58809;47.984;7.964;2022-12-07T00:38:34;97256.50;;;3.26;100.00
43701;BME280;58809;47.984;7.964;2022-12-07T00:41:36;97256.66;;;3.24;100.00
43701;BME280;58809;47.984;7.964;2022-12-07T00:44:37;97245.34;;;3.24;100.00
43701;BME280;58809;47.984;7.964;2022-12-07T00:47:39;97248.28;;;3.31;100.00
43701;BME280;58809;47.984;7.964;2022-12-07T00:50:40;97244.56;;;3.33;100.00
43701;BME280;58809;47.984;7.964;2022-12-07T00:53:42;97245.41;;;3.34;100.00
43701;BME280;58809;47.984;7.964;2022-12-07T00:56:44;97241.00;;;3.34;100.00
43701;BME280;58809;47.984;7.964;2022-12-07T00:59:45;97240.84;;;3.36;100.00
43701;BME280;58809;47.984;7.964;2022-12-07T01:02:47;97244.72;;;3.32;100.00
43701;BME280;58809;47.984;7.964;2022-12-07T01:05:53;97238.38;;;3.34;100.00
43701;BME280;58809;47.984;7.964;2022-12-07T01:08:56;97241.00;;;3.34;100.00
43701;BME280;58809;47.984;7.964;2022-12-07T01:11:57;97246.09;;;3.36;100.00
43701;BME280;58809;47.984;7.964;2022-12-07T01:14:59;97240.56;;;3.39;100.00
43701;BME280;58809;47.984;7.964;2022-12-07T01:18:00;97240.31;;;3.42;100.00
43701;BME280;58809;47.984;7.964;2022-12-07T01:24:36;97251.03;;;3.29;100.00
43701;BME280;58809;47.984;7.964;2022-12-07T01:27:38;97241.22;;;3.21;100.00
43701;BME280;58809;47.984;7.964;2022-12-07T01:30:39;97254.19;;;3.33;100.00
43701;BME280;58809;47.984;7.964;2022-12-07T01:33:43;97250.34;;;3.37;100.00
43701;BME280;58809;47.984;7.964;2022-12-07T01:36:45;97256.56;;;3.36;100.00
43701;BME280;58809;47.984;7.964;2022-12-07T01:39:50;97256.25;;;3.39;100.00
43701;BME280;58809;47.984;7.964;2022-12-07T01:42:52;97249.66;;;3.35;100.00
43701;BME280;58809;47.984;7.964;2022-12-07T01:45:55;97248.69;;;3.36;100.00
43701;BME280;58809;47.984;7.964;2022-12-07T01:48:58;97251.88;;;3.39;100.00
43701;BME280;58809;47.984;7.964;2022-12-07T01:52:25;97257.66;;;3.43;100.00
43701;BME280;58809;47.984;7.964;2022-12-07T01:55:26;97254.06;;;3.44;100.00
43701;BME280;58809;47.984;7.964;2022-12-07T01:58:28;97258.06;;;3.38;100.00
43701;BME280;58809;47.984;7.964;2022-12-07T02:01:30;97262.59;;;3.36;100.00
43701;BME280;58809;47.984;7.964;2022-12-07T02:04:32;97260.53;;;3.40;100.00
43701;BME280;58809;47.984;7.964;2022-12-07T02:07:36;97266.47;;;3.42;100.00
43701;BME280;58809;47.984;7.964;2022-12-07T02:10:39;97268.38;;;3.40;100.00
43701;BME280;58809;47.984;7.964;2022-12-07T02:13:42;97258.72;;;3.31;100.00
43701;BME280;58809;47.984;7.964;2022-12-07T02:17:01;97259.56;;;3.31;100.00
43701;BME280;58809;47.984;7.964;2022-12-07T02:20:14;97261.78;;;3.36;100.00
43701;BME280;58809;47.984;7.964;2022-12-07T02:23:33;97262.59;;;3.46;100.00
43701;BME280;58809;47.984;7.964;2022-12-07T02:27:00;97262.47;;;3.47;100.00
43701;BME280;58809;47.984;7.964;2022-12-07T02:30:31;97262.09;;;3.52;100.00
43701;BME280;58809;47.984;7.964;2022-12-07T02:33:45;97254.94;;;3.54;100.00
43701;BME280;58809;47.984;7.964;2022-12-07T02:36:53;97251.19;;;3.57;100.00
43701;BME280;58809;47.984;7.964;2022-12-07T02:40:04;97255.63;;;3.56;100.00
43701;BME280;58809;47.984;7.964;2022-12-07T02:43:21;97248.31;;;3.50;100.00
43701;BME280;58809;47.984;7.964;2022-12-07T02:46:29;97254.50;;;3.49;100.00
43701;BME280;58809;47.984;7.964;2022-12-07T02:49:32;97256.16;;;3.50;100.00
43701;BME280;58809;47.984;7.964;2022-12-07T02:52:34;97256.84;;;3.52;100.00
43701;BME280;58809;47.984;7.964;2022-12-07T02:55:39;97258.09;;;3.48;100.00
43701;BME280;58809;47.984;7.964;2022-12-07T03:05:54;97263.72;;;3.43;100.00
43701;BME280;58809;47.984;7.964;2022-12-07T03:12:18;97267.59;;;2.99;100.00
43701;BME280;58809;47.984;7.964;2022-12-07T03:15:47;97270.22;;;2.99;100.00
43701;BME280;58809;47.984;7.964;2022-12-07T03:19:02;97264.44;;;3.05;100.00
43701;BME280;58809;47.984;7.964;2022-12-07T03:22:10;97261.00;;;3.04;100.00
43701;BME280;58809;47.984;7.964;2022-12-07T03:25:15;97259.47;;;3.02;100.00
43701;BME280;58809;47.984;7.964;2022-12-07T03:28:20;97263.09;;;3.11;100.00
43701;BME280;58809;47.984;7.964;2022-12-07T03:31:28;97255.66;;;3.16;100.00
43701;BME280;58809;47.984;7.964;2022-12-07T03:34:40;97256.75;;;3.13;100.00
43701;BME280;58809;47.984;7.964;2022-12-07T03:37:51;97257.31;;;3.17;100.00
43701;BME280;58809;47.984;7.964;2022-12-07T03:41:01;97257.47;;;3.25;100.00
43701;BME280;58809;47.984;7.964;2022-12-07T03:44:05;97251.44;;;3.24;100.00
43701;BME280;58809;47.984;7.964;2022-12-07T03:47:16;97249.34;;;3.18;100.00
43701;BME280;58809;47.984;7.964;2022-12-07T03:54:12;97246.47;;;3.21;100.00
43701;BME280;58809;47.984;7.964;2022-12-07T03:57:15;97239.72;;;3.19;100.00
43701;BME280;58809;47.984;7.964;2022-12-07T04:00:18;97242.06;;;3.22;100.00
43701;BME280;58809;47.984;7.964;2022-12-07T04:03:20;97243.44;;;3.26;100.00
43701;BME280;58809;47.984;7.964;2022-12-07T04:06:22;97236.16;;;3.30;100.00
43701;BME280;58809;47.984;7.964;2022-12-07T04:09:23;97233.41;;;3.31;100.00
43701;BME280;58809;47.984;7.964;2022-12-07T04:12:25;97236.88;;;3.32;100.00
43701;BME280;58809;47.984;7.964;2022-12-07T04:15:27;97219.91;;;3.26;100.00
43701;BME280;58809;47.984;7.964;2022-12-07T04:18:28;97234.25;;;3.32;100.00
43701;BME280;58809;47.984;7.964;2022-12-07T04:21:30;97239.19;;;3.35;100.00
43701;BME280;58809;47.984;7.964;2022-12-07T04:24:32;97239.19;;;3.35;100.00
43701;BME280;58809;47.984;7.964;2022-12-07T04:27:33;97237.81;;;3.31;100.00
43701;BME280;58809;47.984;7.964;2022-12-07T04:30:35;97237.81;;;3.31;100.00
43701;BME280;58809;47.984;7.964;2022-12-07T04:33:37;97240.00;;;3.25;100.00
43701;BME280;58809;47.984;7.964;2022-12-07T04:36:38;97235.88;;;3.23;100.00
43701;BME280;58809;47.984;7.964;2022-12-07T04:39:40;97237.09;;;3.19;100.00
43701;BME280;58809;47.984;7.964;2022-12-07T04:42:42;97240.28;;;3.22;100.00
43701;BME280;58809;47.984;7.964;2022-12-07T04:45:47;97235.81;;;3.13;100.00
43701;BME280;58809;47.984;7.964;2022-12-07T04:48:50;97239.69;;;3.09;100.00
43701;BME280;58809;47.984;7.964;2022-12-07T04:51:52;97237.06;;;3.09;100.00
43701;BME280;58809;47.984;7.964;2022-12-07T04:54:54;97234.19;;;3.12;100.00
43701;BME280;58809;47.984;7.964;2022-12-07T04:57:55;97236.81;;;3.12;100.00
43701;BME280;58809;47.984;7.964;2022-12-07T05:00:57;97238.44;;;3.13;100.00
43701;BME280;58809;47.984;7.964;2022-12-07T05:03:59;97235.69;;;3.15;100.00
43701;BME280;58809;47.984;7.964;2022-12-07T05:07:00;97239.41;;;3.12;100.00
43701;BME280;58809;47.984;7.964;2022-12-07T05:10:02;97235.81;;;3.13;100.00
43701;BME280;58809;47.984;7.964;2022-12-07T05:13:05;97238.03;;;3.08;100.00
43701;BME280;58809;47.984;7.964;2022-12-07T05:16:06;97237.16;;;2.98;100.00
43701;BME280;58809;47.984;7.964;2022-12-07T05:19:09;97229.31;;;2.98;100.00
43701;BME280;58809;47.984;7.964;2022-12-07T05:22:11;97237.72;;;3.01;100.00
43701;BME280;58809;47.984;7.964;2022-12-07T05:25:12;97231.94;;;2.98;100.00
43701;BME280;58809;47.984;7.964;2022-12-07T05:28:14;97230.28;;;2.97;100.00
43701;BME280;58809;47.984;7.964;2022-12-07T05:31:15;97234.41;;;2.89;100.00
43701;BME280;58809;47.984;7.964;2022-12-07T05:34:17;97229.00;;;2.81;100.00
43701;BME280;58809;47.984;7.964;2022-12-07T05:37:18;97230.78;;;2.81;100.00
43701;BME280;58809;47.984;7.964;2022-12-07T05:40:20;97231.34;;;2.84;100.00
43701;BME280;58809;47.984;7.964;2022-12-07T05:43:22;97227.63;;;2.87;100.00
43701;BME280;58809;47.984;7.964;2022-12-07T05:46:23;97226.63;;;2.78;100.00
43701;BME280;58809;47.984;7.964;2022-12-07T05:49:25;97227.16;;;2.72;100.00
43701;BME280;58809;47.984;7.964;2022-12-07T05:52:26;97224.69;;;2.70;100.00
43701;BME280;58809;47.984;7.964;2022-12-07T05:55:28;97229.78;;;2.72;100.00
43701;BME280;58809;47.984;7.964;2022-12-07T05:58:29;97235.81;;;2.73;100.00
43701;BME280;58809;47.984;7.964;2022-12-07T06:01:58;97232.81;;;2.67;100.00
43701;BME280;58809;47.984;7.964;2022-12-07T06:05:00;97235.09;;;2.61;100.00
43701;BME280;58809;47.984;7.964;2022-12-07T06:08:02;97236.03;;;2.60;100.00
43701;BME280;58809;47.984;7.964;2022-12-07T06:11:06;97235.88;;;2.52;100.00
43701;BME280;58809;47.984;7.964;2022-12-07T06:14:26;97235.44;;;2.46;100.00
43701;BME280;58809;47.984;7.964;2022-12-07T06:17:28;97240.78;;;2.45;100.00
43701;BME280;58809;47.984;7.964;2022-12-07T06:20:30;97237.16;;;2.36;100.00
43701;BME280;58809;47.984;7.964;2022-12-07T06:23:31;97238.69;;;2.18;100.00
43701;BME280;58809;47.984;7.964;2022-12-07T06:26:33;97235.09;;;2.09;100.00
43701;BME280;58809;47.984;7.964;2022-12-07T06:29:34;97232.09;;;1.92;100.00
43701;BME280;58809;47.984;7.964;2022-12-07T06:32:37;97233.78;;;1.82;100.00
43701;BME280;58809;47.984;7.964;2022-12-07T06:35:38;97229.31;;;1.73;100.00
43701;BME280;58809;47.984;7.964;2022-12-07T06:38:40;97234.78;;;1.70;100.00
43701;BME280;58809;47.984;7.964;2022-12-07T06:41:42;97233.25;;;1.67;100.00
43701;BME280;58809;47.984;7.964;2022-12-07T06:44:43;97235.47;;;1.72;100.00
43701;BME280;58809;47.984;7.964;2022-12-07T06:47:45;97233.72;;;1.72;100.00
43701;BME280;58809;47.984;7.964;2022-12-07T06:50:47;97238.09;;;1.72;100.00
43701;BME280;58809;47.984;7.964;2022-12-07T06:53:55;97242.47;;;1.71;100.00
43701;BME280;58809;47.984;7.964;2022-12-07T06:56:57;97234.59;;;1.62;100.00
43701;BME280;58809;47.984;7.964;2022-12-07T06:59:58;97240.75;;;1.61;100.00
43701;BME280;58809;47.984;7.964;2022-12-07T07:03:01;97236.84;;;1.55;100.00
43701;BME280;58809;47.984;7.964;2022-12-07T07:06:02;97239.25;;;1.47;100.00
43701;BME280;58809;47.984;7.964;2022-12-07T07:09:04;97237.38;;;1.38;100.00
43701;BME280;58809;47.984;7.964;2022-12-07T07:12:06;97241.16;;;1.33;100.00
43701;BME280;58809;47.984;7.964;2022-12-07T07:15:08;97241.44;;;1.30;100.00
43701;BME280;58809;47.984;7.964;2022-12-07T07:18:11;97236.47;;;1.27;100.00
43701;BME280;58809;47.984;7.964;2022-12-07T07:21:12;97243.47;;;1.27;100.00
43701;BME280;58809;47.984;7.964;2022-12-07T07:24:14;97245.00;;;1.18;100.00
43701;BME280;58809;47.984;7.964;2022-12-07T07:27:15;97248.81;;;1.14;100.00
43701;BME280;58809;47.984;7.964;2022-12-07T07:30:17;97252.59;;;1.10;100.00
43701;BME280;58809;47.984;7.964;2022-12-07T07:33:20;97252.16;;;1.05;100.00
43701;BME280;58809;47.984;7.964;2022-12-07T07:36:21;97253.31;;;1.01;100.00
43701;BME280;58809;47.984;7.964;2022-12-07T07:39:23;97268.81;;;1.02;100.00
43701;BME280;58809;47.984;7.964;2022-12-07T07:42:24;97260.91;;;1.04;100.00
43701;BME280;58809;47.984;7.964;2022-12-07T07:45:26;97271.22;;;1.05;100.00
43701;BME280;58809;47.984;7.964;2022-12-07T07:48:28;97279.50;;;1.10;100.00
43701;BME280;58809;47.984;7.964;2022-12-07T07:51:30;97284.34;;;1.15;100.00
43701;BME280;58809;47.984;7.964;2022-12-07T07:54:31;97287.19;;;1.12;100.00
43701;BME280;58809;47.984;7.964;2022-12-07T07:57:33;97281.97;;;1.23;100.00
43701;BME280;58809;47.984;7.964;2022-12-07T08:00:34;97280.97;;;1.35;100.00
43701;BME280;58809;47.984;7.964;2022-12-07T08:03:36;97294.84;;;1.47;100.00
43701;BME280;58809;47.984;7.964;2022-12-07T08:06:38;97284.84;;;1.64;100.00
43701;BME280;58809;47.984;7.964;2022-12-07T08:09:39;97287.53;;;1.73;100.00
43701;BME280;58809;47.984;7.964;2022-12-07T08:12:42;97293.09;;;1.80;100.00
43701;BME280;58809;47.984;7.964;2022-12-07T08:16:08;97286.66;;;1.84;100.00
43701;BME280;58809;47.984;7.964;2022-12-07T08:19:10;97294.72;;;1.92;100.00
43701;BME280;58809;47.984;7.964;2022-12-07T08:22:11;97303.56;;;2.01;100.00
43701;BME280;58809;47.984;7.964;2022-12-07T08:25:13;97299.50;;;2.08;100.00
43701;BME280;58809;47.984;7.964;2022-12-07T08:28:15;97298.75;;;2.18;100.00
43701;BME280;58809;47.984;7.964;2022-12-07T08:31:17;97302.84;;;2.31;100.00
43701;BME280;58809;47.984;7.964;2022-12-07T08:34:19;97304.88;;;2.49;100.00
43701;BME280;58809;47.984;7.964;2022-12-07T08:37:21;97306.09;;;2.66;100.00
43701;BME280;58809;47.984;7.964;2022-12-07T08:40:22;97295.69;;;2.76;100.00
43701;BME280;58809;47.984;7.964;2022-12-07T08:43:24;97309.09;;;2.92;100.00
43701;BME280;58809;47.984;7.964;2022-12-07T08:46:42;97311.75;;;3.02;100.00
43701;BME280;58809;47.984;7.964;2022-12-07T08:49:48;97303.81;;;3.13;100.00
43701;BME280;58809;47.984;7.964;2022-12-07T08:52:53;97293.22;;;3.15;100.00
43701;BME280;58809;47.984;7.964;2022-12-07T08:55:56;97302.19;;;3.22;100.00
43701;BME280;58809;47.984;7.964;2022-12-07T08:58:58;97303.03;;;3.22;100.00
43701;BME280;58809;47.984;7.964;2022-12-07T09:02:00;97309.00;;;3.34;100.00
43701;BME280;58809;47.984;7.964;2022-12-07T09:05:02;97303.94;;;3.52;100.00
43701;BME280;58809;47.984;7.964;2022-12-07T09:08:04;97297.88;;;3.52;99.77
43701;BME280;58809;47.984;7.964;2022-12-07T09:11:06;97302.28;;;3.51;99.00
43701;BME280;58809;47.984;7.964;2022-12-07T09:14:07;97305.88;;;3.50;98.39
43701;BME280;58809;47.984;7.964;2022-12-07T09:17:11;97309.31;;;3.60;98.21
43701;BME280;58809;47.984;7.964;2022-12-07T09:20:13;97304.53;;;3.65;96.34
43701;BME280;58809;47.984;7.964;2022-12-07T09:23:14;97312.81;;;3.71;95.86
43701;BME280;58809;47.984;7.964;2022-12-07T09:26:16;97309.50;;;3.69;94.05
43701;BME280;58809;47.984;7.964;2022-12-07T09:29:18;97302.59;;;3.67;93.82
43701;BME280;58809;47.984;7.964;2022-12-07T09:32:19;97302.84;;;3.64;92.79
43701;BME280;58809;47.984;7.964;2022-12-07T09:35:21;97304.94;;;3.61;92.51
43701;BME280;58809;47.984;7.964;2022-12-07T09:38:23;97297.91;;;3.61;92.40
43701;BME280;58809;47.984;7.964;2022-12-07T09:41:29;97301.78;;;3.67;91.48
43701;BME280;58809;47.984;7.964;2022-12-07T09:44:31;97298.59;;;3.73;91.39
43701;BME280;58809;47.984;7.964;2022-12-07T09:47:33;97300.81;;;3.78;89.02
43701;BME280;58809;47.984;7.964;2022-12-07T09:50:35;97296.28;;;3.80;88.08
43701;BME280;58809;47.984;7.964;2022-12-07T09:53:38;97288.56;;;3.88;87.53
43701;BME280;58809;47.984;7.964;2022-12-07T09:56:40;97282.22;;;4.00;86.96
43701;BME280;58809;47.984;7.964;2022-12-07T09:59:41;97287.34;;;4.02;86.90
43701;BME280;58809;47.984;7.964;2022-12-07T10:02:50;97285.94;;;3.88;86.01
43701;BME280;58809;47.984;7.964;2022-12-07T10:05:52;97287.88;;;3.86;86.33
43701;BME280;58809;47.984;7.964;2022-12-07T10:08:54;97274.78;;;3.86;85.60
43701;BME280;58809;47.984;7.964;2022-12-07T10:12:07;97275.38;;;3.99;85.52
43701;BME280;58809;47.984;7.964;2022-12-07T10:15:12;97271.06;;;4.18;83.65
43701;BME280;58809;47.984;7.964;2022-12-07T10:21:29;97262.09;;;4.40;80.31
43701;BME280;58809;47.984;7.964;2022-12-07T10:24:31;97260.94;;;4.52;78.34
43701;BME280;58809;47.984;7.964;2022-12-07T10:27:32;97254.28;;;4.68;76.23
43701;BME280;58809;47.984;7.964;2022-12-07T10:33:56;97248.94;;;4.97;74.19
43701;BME280;58809;47.984;7.964;2022-12-07T10:40:36;97234.22;;;5.14;72.00
43701;BME280;58809;47.984;7.964;2022-12-07T10:43:47;97228.44;;;5.10;71.11
43701;BME280;58809;47.984;7.964;2022-12-07T10:54:00;97214.06;;;5.14;70.47
43701;BME280;58809;47.984;7.964;2022-12-07T11:06:37;97198.97;;;5.26;69.27
43701;BME280;58809;47.984;7.964;2022-12-07T11:10:01;97194.91;;;5.32;69.37
43701;BME280;58809;47.984;7.964;2022-12-07T11:23:56;97185.25;;;5.50;67.03
43701;BME280;58809;47.984;7.964;2022-12-07T11:30:20;97174.66;;;5.60;67.31
43701;BME280;58809;47.984;7.964;2022-12-07T11:33:35;97169.13;;;5.81;66.94
43701;BME280;58809;47.984;7.964;2022-12-07T11:36:54;97172.47;;;5.91;66.67
43701;BME280;58809;47.984;7.964;2022-12-07T11:40:02;97166.00;;;5.95;65.43
43701;BME280;58809;47.984;7.964;2022-12-07T11:43:13;97158.28;;;5.84;65.96
43701;BME280;58809;47.984;7.964;2022-12-07T11:46:19;97156.97;;;5.98;65.38
43701;BME280;58809;47.984;7.964;2022-12-07T11:49:51;97162.63;;;5.93;63.04
43701;BME280;58809;47.984;7.964;2022-12-07T11:52:59;97151.78;;;5.88;64.64
43701;BME280;58809;47.984;7.964;2022-12-07T11:56:20;97142.69;;;6.01;63.99
43701;BME280;58809;47.984;7.964;2022-12-07T11:59:31;97139.50;;;6.15;64.15
43701;BME280;58809;47.984;7.964;2022-12-07T12:05:53;97134.97;;;6.25;63.01
43701;BME280;58809;47.984;7.964;2022-12-07T12:12:38;97133.78;;;6.46;61.88
43701;BME280;58809;47.984;7.964;2022-12-07T12:16:11;97129.84;;;6.50;61.75
43701;BME280;58809;47.984;7.964;2022-12-07T12:22:23;97107.41;;;6.64;61.52
43701;BME280;58809;47.984;7.964;2022-12-07T12:25:35;97111.41;;;6.76;61.14
43701;BME280;58809;47.984;7.964;2022-12-07T12:29:00;97102.41;;;6.87;60.74
43701;BME280;58809;47.984;7.964;2022-12-07T12:32:13;97105.69;;;6.97;60.42
43701;BME280;58809;47.984;7.964;2022-12-07T12:35:27;97107.22;;;7.16;60.19
43701;BME280;58809;47.984;7.964;2022-12-07T12:38:33;97107.56;;;7.13;59.68
43701;BME280;58809;47.984;7.964;2022-12-07T12:47:51;97094.91;;;7.33;58.22
43701;BME280;58809;47.984;7.964;2022-12-07T12:51:36;97086.66;;;7.36;57.76
43701;BME280;58809;47.984;7.964;2022-12-07T12:54:38;97098.53;;;7.48;57.58
43701;BME280;58809;47.984;7.964;2022-12-07T12:57:40;97094.44;;;7.46;57.55
43701;BME280;58809;47.984;7.964;2022-12-07T13:00:41;97090.97;;;7.54;57.16
43701;BME280;58809;47.984;7.964;2022-12-07T13:03:54;97083.38;;;7.67;56.79
43701;BME280;58809;47.984;7.964;2022-12-07T13:06:56;97085.69;;;7.78;56.58
43701;BME280;58809;47.984;7.964;2022-12-07T13:09:57;97078.41;;;7.97;57.30
43701;BME280;58809;47.984;7.964;2022-12-07T13:22:49;97076.44;;;7.00;58.17
43701;BME280;58809;47.984;7.964;2022-12-07T13:29:36;97064.47;;;6.47;59.88
43701;BME280;58809;47.984;7.964;2022-12-07T13:32:38;97068.38;;;6.43;60.12
43701;BME280;58809;47.984;7.964;2022-12-07T13:35:40;97067.41;;;6.44;60.65
43701;BME280;58809;47.984;7.964;2022-12-07T13:38:49;97064.78;;;6.44;60.43
43701;BME280;58809;47.984;7.964;2022-12-07T13:41:58;97061.28;;;6.35;60.59
43701;BME280;58809;47.984;7.964;2022-12-07T13:45:21;97062.22;;;6.26;61.07
43701;BME280;58809;47.984;7.964;2022-12-07T13:48:47;97064.69;;;6.27;61.65
43701;BME280;58809;47.984;7.964;2022-12-07T13:51:49;97059.44;;;6.27;61.43
43701;BME280;58809;47.984;7.964;2022-12-07T13:55:00;97048.84;;;6.11;61.85
43701;BME280;58809;47.984;7.964;2022-12-07T13:58:03;97056.00;;;6.01;62.30
43701;BME280;58809;47.984;7.964;2022-12-07T14:01:05;97057.31;;;5.96;62.44
43701;BME280;58809;47.984;7.964;2022-12-07T14:04:29;97050.94;;;5.99;61.40
43701;BME280;58809;47.984;7.964;2022-12-07T14:07:33;97054.91;;;6.03;61.58
43701;BME280;58809;47.984;7.964;2022-12-07T14:10:54;97051.75;;;6.00;60.22
43701;BME280;58809;47.984;7.964;2022-12-07T14:13:59;97050.00;;;6.08;60.22
43701;BME280;58809;47.984;7.964;2022-12-07T14:17:15;97048.28;;;6.33;60.13
43701;BME280;58809;47.984;7.964;2022-12-07T14:20:31;97047.03;;;6.46;59.13
43701;BME280;58809;47.984;7.964;2022-12-07T14:23:33;97037.53;;;6.61;58.68
43701;BME280;58809;47.984;7.964;2022-12-07T14:26:35;97040.63;;;6.48;57.95
43701;BME280;58809;47.984;7.964;2022-12-07T14:29:37;97045.50;;;6.35;58.25
43701;BME280;58809;47.984;7.964;2022-12-07T14:32:39;97032.16;;;6.20;58.46
43701;BME280;58809;47.984;7.964;2022-12-07T14:35:42;97038.72;;;6.24;59.17
43701;BME280;58809;47.984;7.964;2022-12-07T14:38:43;97028.81;;;6.10;59.07
43701;BME280;58809;47.984;7.964;2022-12-07T14:41:45;97033.44;;;6.16;60.47
43701;BME280;58809;47.984;7.964;2022-12-07T14:44:52;97026.19;;;6.10;60.26
43701;BME280;58809;47.984;7.964;2022-12-07T14:47:53;97028.66;;;5.85;61.07
43701;BME280;58809;47.984;7.964;2022-12-07T14:51:15;97023.53;;;5.75;62.10
43701;BME280;58809;47.984;7.964;2022-12-07T14:54:37;97035.09;;;5.65;62.74
43701;BME280;58809;47.984;7.964;2022-12-07T14:57:38;97042.06;;;5.48;63.85
43701;BME280;58809;47.984;7.964;2022-12-07T15:00:40;97027.97;;;5.31;63.60
43701;BME280;58809;47.984;7.964;2022-12-07T15:03:42;97045.97;;;5.26;64.96
43701;BME280;58809;47.984;7.964;2022-12-07T15:06:55;97042.69;;;5.06;65.70
43701;BME280;58809;47.984;7.964;2022-12-07T15:09:56;97045.59;;;5.03;66.36
43701;BME280;58809;47.984;7.964;2022-12-07T15:13:02;97044.41;;;4.97;66.83
43701;BME280;58809;47.984;7.964;2022-12-07T15:16:22;97042.22;;;4.92;67.34
43701;BME280;58809;47.984;7.964;2022-12-07T15:19:24;97039.69;;;5.00;68.44
43701;BME280;58809;47.984;7.964;2022-12-07T15:22:30;97039.00;;;4.98;68.51
43701;BME280;58809;47.984;7.964;2022-12-07T15:25:46;97039.69;;;4.82;69.16
43701;BME280;58809;47.984;7.964;2022-12-07T15:28:48;97037.94;;;4.73;69.38
43701;BME280;58809;47.984;7.964;2022-12-07T15:31:51;97044.25;;;4.80;70.23
43701;BME280;58809;47.984;7.964;2022-12-07T15:34:58;97050.44;;;4.79;70.87
43701;BME280;58809;47.984;7.964;2022-12-07T15:38:00;97043.84;;;4.75;71.05
43701;BME280;58809;47.984;7.964;2022-12-07T15:41:03;97044.47;;;4.69;71.42
43701;BME280;58809;47.984;7.964;2022-12-07T15:44:04;97042.28;;;4.65;71.70
43701;BME280;58809;47.984;7.964;2022-12-07T15:47:36;97044.50;;;4.59;71.80
43701;BME280;58809;47.984;7.964;2022-12-07T15:51:06;97049.53;;;4.53;71.60
43701;BME280;58809;47.984;7.964;2022-12-07T15:54:18;97046.22;;;4.51;70.93
43701;BME280;58809;47.984;7.964;2022-12-07T15:57:20;97045.00;;;4.45;71.37
43701;BME280;58809;47.984;7.964;2022-12-07T16:00:26;97046.56;;;4.38;71.65
43701;BME280;58809;47.984;7.964;2022-12-07T16:03:27;97047.81;;;4.34;71.75
43701;BME280;58809;47.984;7.964;2022-12-07T16:06:29;97035.44;;;4.26;71.63
43701;BME280;58809;47.984;7.964;2022-12-07T16:09:31;97037.59;;;4.13;71.28
43701;BME280;58809;47.984;7.964;2022-12-07T16:12:33;97033.41;;;3.92;71.84
43701;BME280;58809;47.984;7.964;2022-12-07T16:15:38;97034.53;;;3.80;72.61
43701;BME280;58809;47.984;7.964;2022-12-07T16:18:42;97032.50;;;3.64;73.10
43701;BME280;58809;47.984;7.964;2022-12-07T16:21:43;97042.03;;;3.55;73.80
43701;BME280;58809;47.984;7.964;2022-12-07T16:24:45;97037.94;;;3.43;73.96
43701;BME280;58809;47.984;7.964;2022-12-07T16:27:46;97029.97;;;3.25;75.71
43701;BME280;58809;47.984;7.964;2022-12-07T16:30:48;97034.50;;;3.13;76.25
43701;BME280;58809;47.984;7.964;2022-12-07T16:33:53;97031.91;;;3.03;77.35
43701;BME280;58809;47.984;7.964;2022-12-07T16:36:55;97033.00;;;2.91;77.76
43701;BME280;58809;47.984;7.964;2022-12-07T16:40:06;97034.94;;;2.79;77.89
43701;BME280;58809;47.984;7.964;2022-12-07T16:43:08;97032.16;;;2.71;78.58
43701;BME280;58809;47.984;7.964;2022-12-07T16:46:12;97036.31;;;2.64;78.90
43701;BME280;58809;47.984;7.964;2022-12-07T16:49:15;97030.22;;;2.54;78.71
43701;BME280;58809;47.984;7.964;2022-12-07T16:52:17;97030.91;;;2.46;79.36
43701;BME280;58809;47.984;7.964;2022-12-07T16:55:21;97032.78;;;2.34;79.97
43701;BME280;58809;47.984;7.964;2022-12-07T16:58:23;97028.09;;;2.28;80.99
43701;BME280;58809;47.984;7.964;2022-12-07T17:01:24;97027.66;;;2.23;81.11
43701;BME280;58809;47.984;7.964;2022-12-07T17:04:29;97027.78;;;2.11;81.56
43701;BME280;58809;47.984;7.964;2022-12-07T17:07:31;97022.53;;;2.02;82.30
43701;BME280;58809;47.984;7.964;2022-12-07T17:10:35;97014.94;;;1.89;83.27
43701;BME280;58809;47.984;7.964;2022-12-07T17:13:36;97019.03;;;1.82;83.88
43701;BME280;58809;47.984;7.964;2022-12-07T17:16:56;97009.06;;;1.66;84.33
43701;BME280;58809;47.984;7.964;2022-12-07T17:19:58;97010.28;;;1.62;84.83
43701;BME280;58809;47.984;7.964;2022-12-07T17:23:00;97009.25;;;1.53;85.96
43701;BME280;58809;47.984;7.964;2022-12-07T17:29:12;97017.41;;;1.39;86.31
43701;BME280;58809;47.984;7.964;2022-12-07T17:32:17;97006.25;;;1.27;87.13
43701;BME280;58809;47.984;7.964;2022-12-07T17:35:19;97014.31;;;1.24;87.85
43701;BME280;58809;47.984;7.964;2022-12-07T17:38:20;97009.34;;;1.21;88.37
43701;BME280;58809;47.984;7.964;2022-12-07T17:41:25;97001.91;;;1.16;88.85
43701;BME280;58809;47.984;7.964;2022-12-07T17:44:45;97012.59;;;1.13;89.23
43701;BME280;58809;47.984;7.964;2022-12-07T17:47:46;97005.53;;;1.04;89.82
43701;BME280;58809;47.984;7.964;2022-12-07T17:50:48;97006.75;;;1.00;89.95
43701;BME280;58809;47.984;7.964;2022-12-07T17:54:09;97004.38;;;0.96;90.12
43701;BME280;58809;47.984;7.964;2022-12-07T17:57:11;97014.34;;;0.91;90.00
43701;BME280;58809;47.984;7.964;2022-12-07T18:00:13;97013.06;;;0.86;90.36